createdAt,value
2023-01-02T00:01:05.897Z,7.43
2023-01-02T00:03:33.096Z,7.15
2023-01-02T00:06:03.438Z,7.33
2023-01-02T00:08:30.070Z,7.17
2023-01-02T00:10:56.674Z,7.21
2023-01-02T00:13:23.304Z,7.05
2023-01-02T00:15:50.029Z,7.35
2023-01-02T00:18:16.789Z,7.33
2023-01-02T00:20:43.468Z,7.19
2023-01-02T00:23:10.084Z,7.27
2023-01-02T00:25:36.843Z,7.21
2023-01-02T00:28:03.818Z,7.11
2023-01-02T00:30:37.678Z,7.05
2023-01-02T00:33:05.883Z,7.12
2023-01-02T00:35:33.188Z,7.10
2023-01-02T00:37:59.883Z,6.94
2023-01-02T00:40:26.527Z,7.03
2023-01-02T00:42:53.188Z,7.23
2023-01-02T00:45:19.862Z,7.18
2023-01-02T00:47:46.526Z,7.28
2023-01-02T00:50:13.194Z,7.25
2023-01-02T00:54:05.039Z,7.10
2023-01-02T00:56:31.699Z,7.14
2023-01-02T00:58:58.404Z,7.12
2023-01-02T01:01:25.160Z,7.14
2023-01-02T01:03:51.919Z,7.09
2023-01-02T01:06:18.585Z,7.01
2023-01-02T01:08:45.260Z,7.00
2023-01-02T01:11:13.853Z,7.03
2023-01-02T01:13:40.589Z,7.05
2023-01-02T01:16:16.241Z,7.21
2023-01-02T01:18:43.557Z,7.06
2023-01-02T01:21:28.356Z,7.11
2023-01-02T01:23:55.798Z,6.90
2023-01-02T01:26:22.881Z,7.02
2023-01-02T01:28:52.676Z,7.01
2023-01-02T01:31:19.735Z,6.82
2023-01-02T01:33:46.587Z,6.97
2023-01-02T01:36:17.791Z,6.98
2023-01-02T01:38:45.110Z,6.96
2023-01-02T01:41:13.638Z,7.01
2023-01-02T01:43:51.874Z,6.80
2023-01-02T01:46:31.179Z,6.88
2023-01-02T01:49:10.397Z,6.90
2023-01-02T01:51:40.982Z,6.84
2023-01-02T01:54:10.080Z,6.95
2023-01-02T01:56:39.931Z,6.93
2023-01-02T01:59:07.771Z,6.73
2023-01-02T02:01:34.772Z,6.79
2023-01-02T02:04:02.066Z,6.84
2023-01-02T02:06:28.991Z,6.86
2023-01-02T02:08:59.784Z,6.78
2023-01-02T02:11:26.913Z,6.73
2023-01-02T02:13:59.135Z,6.71
2023-01-02T02:16:34.467Z,6.71
2023-01-02T02:19:04.016Z,6.82
2023-01-02T02:21:38.017Z,6.81
2023-01-02T02:25:02.088Z,6.75
2023-01-02T02:27:28.612Z,6.77
2023-01-02T02:30:20.084Z,6.66
2023-01-02T02:33:18.274Z,6.63
2023-01-02T02:36:07.140Z,6.52
2023-01-02T02:38:52.695Z,6.50
2023-01-02T02:41:40.351Z,6.40
2023-01-02T02:44:16.206Z,6.32
2023-01-02T02:46:54.830Z,6.15
2023-01-02T02:49:39.638Z,6.12
2023-01-02T02:52:22.789Z,6.09
2023-01-02T02:54:55.432Z,6.12
2023-01-02T02:57:22.747Z,6.06
2023-01-02T02:59:49.400Z,6.05
2023-01-02T03:02:17.434Z,6.06
2023-01-02T03:04:46.033Z,5.95
2023-01-02T03:07:17.092Z,5.90
2023-01-02T03:09:57.376Z,5.88
2023-01-02T03:12:23.946Z,5.81
2023-01-02T03:14:58.831Z,5.80
2023-01-02T03:17:53.414Z,5.85
2023-01-02T03:20:23.312Z,5.84
2023-01-02T03:22:54.218Z,5.77
2023-01-02T03:25:22.284Z,5.79
2023-01-02T03:27:50.198Z,5.71
2023-01-02T03:30:19.417Z,5.84
2023-01-02T03:33:00.539Z,5.78
2023-01-02T03:35:32.038Z,5.89
2023-01-02T03:37:59.828Z,5.85
2023-01-02T03:40:28.742Z,6.05
2023-01-02T03:43:11.489Z,6.22
2023-01-02T03:45:42.552Z,6.32
2023-01-02T03:48:34.577Z,6.39
2023-01-02T03:51:01.948Z,6.42
2023-01-02T03:53:28.826Z,6.44
2023-01-02T03:56:16.072Z,6.48
2023-01-02T03:59:09.542Z,6.53
2023-01-02T04:01:36.323Z,6.49
2023-01-02T04:04:10.551Z,6.36
2023-01-02T04:06:39.163Z,6.50
2023-01-02T04:09:19.807Z,6.48
2023-01-02T04:11:50.892Z,6.41
2023-01-02T04:14:39.419Z,6.45
2023-01-02T04:17:08.410Z,6.41
2023-01-02T04:19:48.155Z,6.38
2023-01-02T04:22:19.235Z,6.43
2023-01-02T04:24:50.350Z,6.40
2023-01-02T04:27:29.780Z,6.30
2023-01-02T04:29:59.637Z,6.37
2023-01-02T04:32:39.400Z,6.36
2023-01-02T04:35:08.481Z,6.31
2023-01-02T04:37:40.740Z,6.36
2023-01-02T04:40:27.988Z,6.34
2023-01-02T04:42:55.042Z,6.25
2023-01-02T04:45:22.109Z,6.27
2023-01-02T04:47:49.470Z,6.20
2023-01-02T04:50:16.330Z,6.26
2023-01-02T04:52:43.020Z,6.24
2023-01-02T04:55:10.401Z,6.25
2023-01-02T04:57:38.134Z,6.19
2023-01-02T05:00:06.528Z,6.19
2023-01-02T05:02:37.625Z,6.18
2023-01-02T05:05:06.252Z,6.18
2023-01-02T05:07:36.081Z,6.14
2023-01-02T05:10:02.753Z,6.14
2023-01-02T05:12:29.491Z,6.16
2023-01-02T05:14:56.180Z,6.09
2023-01-02T05:17:22.859Z,6.01
2023-01-02T05:19:49.498Z,6.06
2023-01-02T05:22:37.793Z,5.90
2023-01-02T05:25:05.937Z,6.00
2023-01-02T05:27:32.581Z,5.97
2023-01-02T05:29:59.257Z,5.96
2023-01-02T05:32:27.481Z,5.91
2023-01-02T05:34:54.149Z,5.83
2023-01-02T05:37:20.810Z,5.84
2023-01-02T05:39:47.384Z,5.96
2023-01-02T05:42:14.070Z,5.92
2023-01-02T05:44:40.945Z,5.93
2023-01-02T05:47:10.890Z,5.86
2023-01-02T05:49:40.094Z,5.85
2023-01-02T05:52:06.786Z,5.78
2023-01-02T05:54:33.383Z,5.83
2023-01-02T05:57:00.114Z,5.79
2023-01-02T05:59:26.772Z,5.85
2023-01-02T06:01:53.541Z,5.79
2023-01-02T06:04:20.335Z,5.78
2023-01-02T06:06:47.385Z,5.80
2023-01-02T06:09:15.216Z,5.79
2023-01-02T06:11:42.251Z,5.82
2023-01-02T06:14:10.695Z,5.63
2023-01-02T06:16:38.533Z,5.72
2023-01-02T06:19:05.936Z,5.86
2023-01-02T06:21:33.517Z,5.85
2023-01-02T06:24:00.762Z,5.89
2023-01-02T06:26:34.273Z,5.91
2023-01-02T06:29:02.287Z,5.97
2023-01-02T06:31:29.824Z,6.05
2023-01-02T06:33:58.319Z,6.06
2023-01-02T06:36:25.263Z,6.00
2023-01-02T06:38:52.153Z,5.95
2023-01-02T06:41:18.914Z,6.07
2023-01-02T06:43:49.462Z,6.10
2023-01-02T06:46:18.536Z,6.12
2023-01-02T06:48:45.897Z,6.18
2023-01-02T06:51:15.171Z,6.29
2023-01-02T06:53:43.024Z,6.32
2023-01-02T06:56:10.581Z,6.36
2023-01-02T06:58:38.058Z,6.54
2023-01-02T07:01:07.206Z,6.67
2023-01-02T07:03:34.197Z,6.83
2023-01-02T07:06:07.841Z,6.88
2023-01-02T07:08:34.612Z,6.96
2023-01-02T07:11:13.636Z,6.92
2023-01-02T07:13:41.743Z,7.02
2023-01-02T07:16:11.144Z,6.97
2023-01-02T07:18:38.121Z,7.00
2023-01-02T07:21:06.206Z,7.01
2023-01-02T07:23:33.032Z,7.04
2023-01-02T07:26:01.060Z,7.20
2023-01-02T07:28:28.649Z,7.18
2023-01-02T07:30:59.939Z,7.19
2023-01-02T07:33:28.745Z,7.18
2023-01-02T07:36:03.264Z,7.21
2023-01-02T07:38:30.009Z,7.10
2023-01-02T07:40:56.843Z,7.05
2023-01-02T07:43:23.856Z,7.05
2023-01-02T07:45:51.190Z,7.10
2023-01-02T07:48:18.477Z,7.13
2023-01-02T07:50:45.220Z,7.17
2023-01-02T07:53:12.188Z,7.15
2023-01-02T07:55:38.887Z,7.02
2023-01-02T07:58:05.474Z,7.11
2023-01-02T08:00:32.167Z,7.10
2023-01-02T08:02:58.884Z,7.20
2023-01-02T08:05:25.583Z,6.97
2023-01-02T08:07:52.261Z,7.09
2023-01-02T08:10:18.867Z,7.08
2023-01-02T08:12:45.606Z,6.96
2023-01-02T08:15:12.399Z,7.09
2023-01-02T08:17:39.772Z,6.99
2023-01-02T08:20:10.425Z,7.16
2023-01-02T08:22:37.705Z,7.23
2023-01-02T08:25:04.805Z,7.20
2023-01-02T08:27:31.466Z,7.20
2023-01-02T08:29:58.146Z,7.34
2023-01-02T08:32:25.286Z,7.34
2023-01-02T08:34:51.920Z,7.57
2023-01-02T08:37:18.889Z,7.44
2023-01-02T08:39:45.502Z,7.64
2023-01-02T08:42:12.544Z,7.72
2023-01-02T08:44:39.176Z,7.71
2023-01-02T08:47:05.964Z,7.63
2023-01-02T08:49:32.741Z,7.39
2023-01-02T08:51:59.466Z,7.65
2023-01-02T08:54:26.293Z,7.59
2023-01-02T08:56:52.947Z,7.54
2023-01-02T08:59:20.057Z,7.61
2023-01-02T09:01:47.073Z,7.74
2023-01-02T09:04:13.907Z,7.80
2023-01-02T09:06:42.086Z,7.77
2023-01-02T09:09:12.333Z,7.94
2023-01-02T09:12:00.523Z,7.84
2023-01-02T09:14:27.208Z,7.85
2023-01-02T09:16:54.015Z,8.07
2023-01-02T09:19:20.731Z,8.17
2023-01-02T09:21:47.662Z,7.96
2023-01-02T09:24:14.433Z,8.03
2023-01-02T09:26:44.250Z,7.82
2023-01-02T09:29:11.988Z,8.11
2023-01-02T09:31:38.989Z,7.97
2023-01-02T09:34:06.061Z,8.23
2023-01-02T09:36:33.139Z,8.31
2023-01-02T09:39:01.200Z,8.14
2023-01-02T09:41:31.931Z,8.09
2023-01-02T09:44:02.491Z,8.14
2023-01-02T09:46:37.230Z,8.28
2023-01-02T09:49:04.563Z,8.38
2023-01-02T09:51:32.135Z,8.31
2023-01-02T09:53:58.976Z,8.42
2023-01-02T09:56:34.111Z,8.27
2023-01-02T09:59:28.977Z,8.43
2023-01-02T10:02:21.311Z,8.42
2023-01-02T10:04:58.060Z,8.53
2023-01-02T10:07:48.185Z,8.51
2023-01-02T10:10:26.879Z,8.53
2023-01-02T10:13:12.184Z,8.52
2023-01-02T10:15:43.027Z,8.67
2023-01-02T10:18:31.051Z,8.67
2023-01-02T10:21:01.685Z,8.68
2023-01-02T10:23:33.389Z,8.56
2023-01-02T10:26:04.148Z,8.65
2023-01-02T10:28:51.009Z,8.77
2023-01-02T10:31:46.956Z,8.78
2023-01-02T10:34:20.051Z,8.69
2023-01-02T10:36:48.031Z,8.84
2023-01-02T10:39:22.196Z,8.76
2023-01-02T10:41:52.411Z,8.95
2023-01-02T10:44:32.648Z,9.13
2023-01-02T10:47:06.712Z,9.21
2023-01-02T10:49:34.779Z,9.37
2023-01-02T10:52:09.972Z,9.48
2023-01-02T10:54:59.876Z,9.57
2023-01-02T10:57:34.107Z,9.52
2023-01-02T11:00:01.716Z,9.65
2023-01-02T11:02:31.802Z,9.62
2023-01-02T11:05:01.495Z,9.75
2023-01-02T11:07:29.088Z,9.66
2023-01-02T11:09:57.167Z,9.67
2023-01-02T11:12:27.461Z,9.72
2023-01-02T11:15:10.482Z,9.57
2023-01-02T11:17:42.100Z,9.50
2023-01-02T11:20:32.298Z,9.56
2023-01-02T11:23:01.572Z,9.73
2023-01-02T11:25:41.960Z,9.81
2023-01-02T11:28:20.669Z,9.87
2023-01-02T11:30:50.273Z,9.72
2023-01-02T11:33:33.152Z,9.77
2023-01-02T11:36:15.323Z,9.90
2023-01-02T11:38:45.886Z,10.22
2023-01-02T11:41:54.251Z,10.25
2023-01-02T11:44:34.227Z,10.25
2023-01-02T11:47:01.707Z,10.21
2023-01-02T11:49:51.408Z,10.37
2023-01-02T11:52:26.382Z,10.46
2023-01-02T11:54:58.992Z,10.32
2023-01-02T11:57:28.536Z,10.44
2023-01-02T11:59:56.088Z,10.39
2023-01-02T12:02:41.488Z,10.45
2023-01-02T12:05:36.442Z,10.47
2023-01-02T12:08:23.947Z,10.43
2023-01-02T12:10:56.587Z,10.39
2023-01-02T12:13:31.498Z,10.44
2023-01-02T12:16:39.890Z,10.38
2023-01-02T12:19:24.066Z,10.25
2023-01-02T12:22:15.381Z,10.27
2023-01-02T12:25:06.399Z,10.31
2023-01-02T12:27:38.209Z,10.29
2023-01-02T12:30:10.577Z,10.08
2023-01-02T12:33:05.621Z,10.27
2023-01-02T12:35:49.417Z,10.26
2023-01-02T12:38:35.616Z,10.21
2023-01-02T12:42:00.681Z,10.22
2023-01-02T12:44:46.461Z,10.09
2023-01-02T12:47:38.255Z,10.28
2023-01-02T12:50:18.025Z,10.27
2023-01-02T12:52:58.382Z,10.28
2023-01-02T12:55:38.530Z,10.25
2023-01-02T12:58:34.464Z,10.25
2023-01-02T13:01:06.995Z,10.21
2023-01-02T13:03:47.994Z,10.16
2023-01-02T13:06:44.566Z,10.01
2023-01-02T13:09:23.123Z,9.89
2023-01-02T13:11:59.243Z,9.90
2023-01-02T13:14:32.605Z,9.76
2023-01-02T13:17:25.396Z,9.81
2023-01-02T13:20:02.125Z,9.73
2023-01-02T13:22:41.204Z,9.70
2023-01-02T13:25:16.559Z,9.60
2023-01-02T13:27:43.915Z,9.47
2023-01-02T13:30:35.662Z,9.53
2023-01-02T13:33:04.866Z,9.38
2023-01-02T13:35:35.477Z,9.34
2023-01-02T13:38:03.358Z,9.32
2023-01-02T13:40:35.148Z,9.27
2023-01-02T13:43:06.187Z,9.02
2023-01-02T13:45:43.897Z,8.81
2023-01-02T13:48:35.475Z,9.16
2023-01-02T13:51:13.484Z,9.16
2023-01-02T13:53:45.489Z,9.05
2023-01-02T13:56:12.132Z,8.99
2023-01-02T13:58:38.788Z,8.90
2023-01-02T14:01:23.927Z,8.87
2023-01-02T14:04:13.394Z,8.74
2023-01-02T14:06:42.312Z,8.62
2023-01-02T14:09:09.267Z,8.65
2023-01-02T14:11:55.437Z,8.58
2023-01-02T14:14:42.805Z,8.36
2023-01-02T14:17:32.420Z,8.45
2023-01-02T14:20:35.193Z,8.27
2023-01-02T14:23:08.465Z,8.33
2023-01-02T14:25:45.427Z,8.33
2023-01-02T14:28:21.221Z,8.30
2023-01-02T14:30:49.195Z,8.27
2023-01-02T14:33:19.173Z,8.18
2023-01-02T14:35:54.330Z,8.11
2023-01-02T14:38:21.526Z,8.06
2023-01-02T14:40:48.464Z,8.07
2023-01-02T14:43:36.536Z,8.00
2023-01-02T14:46:19.220Z,7.95
2023-01-02T14:48:53.137Z,7.74
2023-01-02T14:51:32.289Z,7.90
2023-01-02T14:54:10.853Z,7.89
2023-01-02T14:56:38.896Z,7.73
2023-01-02T14:59:06.201Z,7.67
2023-01-02T15:01:43.076Z,7.73
2023-01-02T15:04:22.203Z,7.66
2023-01-02T15:06:53.227Z,7.54
2023-01-02T15:09:38.332Z,7.59
2023-01-02T15:12:41.236Z,7.33
2023-01-02T15:15:19.188Z,7.44
2023-01-02T15:17:47.703Z,7.20
2023-01-02T15:20:20.329Z,7.26
2023-01-02T15:22:47.403Z,7.33
2023-01-02T15:25:15.885Z,7.39
2023-01-02T15:27:43.733Z,7.32
2023-01-02T15:30:49.516Z,7.15
2023-01-02T15:33:34.581Z,7.24
2023-01-02T15:36:33.024Z,7.22
2023-01-02T15:39:07.802Z,7.05
2023-01-02T15:41:41.126Z,7.11
2023-01-02T15:44:28.920Z,7.06
2023-01-02T15:46:55.973Z,7.09
2023-01-02T15:49:22.903Z,6.97
2023-01-02T15:51:49.775Z,6.65
2023-01-02T15:54:18.675Z,6.85
2023-01-02T15:56:45.293Z,6.82
2023-01-02T15:59:25.179Z,6.86
2023-01-02T16:01:51.871Z,6.74
2023-01-02T16:04:32.866Z,6.84
2023-01-02T16:07:12.080Z,6.86
2023-01-02T16:09:38.961Z,6.73
2023-01-02T16:12:05.827Z,6.73
2023-01-02T16:14:55.574Z,6.72
2023-01-02T16:17:22.334Z,6.65
2023-01-02T16:19:58.902Z,6.59
2023-01-02T16:22:32.034Z,6.62
2023-01-02T16:25:00.743Z,6.63
2023-01-02T16:27:30.504Z,6.68
2023-01-02T16:29:57.303Z,6.62
2023-01-02T16:32:27.866Z,6.68
2023-01-02T16:35:20.821Z,6.66
2023-01-02T16:37:54.028Z,6.63
2023-01-02T16:41:00.349Z,6.63
2023-01-02T16:43:11.233Z,6.44
2023-01-02T16:45:39.084Z,6.65
2023-01-02T16:48:08.016Z,6.43
2023-01-02T16:50:40.659Z,6.48
2023-01-02T16:53:07.714Z,6.37
2023-01-02T16:55:34.417Z,6.48
2023-01-02T16:58:01.370Z,6.47
2023-01-02T17:00:28.066Z,6.46
2023-01-02T17:02:54.862Z,6.51
2023-01-02T17:05:38.865Z,6.51
2023-01-02T17:08:06.127Z,6.54
2023-01-02T17:10:33.245Z,6.56
2023-01-02T17:12:59.885Z,6.52
2023-01-02T17:15:26.568Z,6.58
2023-01-02T17:17:53.206Z,6.55
2023-01-02T17:20:19.963Z,6.53
2023-01-02T17:22:46.580Z,6.56
2023-01-02T17:25:14.851Z,6.50
2023-01-02T17:27:42.989Z,6.61
2023-01-02T17:30:12.971Z,6.57
2023-01-02T17:32:41.645Z,6.58
2023-01-02T17:35:09.712Z,6.54
2023-01-02T17:37:37.646Z,6.51
2023-01-02T17:40:06.205Z,6.57
2023-01-02T17:42:33.083Z,6.56
2023-01-02T17:44:59.792Z,6.56
2023-01-02T17:50:13.493Z,6.45
2023-01-02T17:52:40.165Z,6.41
2023-01-02T17:55:07.629Z,6.51
2023-01-02T17:57:39.361Z,6.44
2023-01-02T18:00:08.452Z,6.37
2023-01-02T18:02:35.420Z,6.32
2023-01-02T18:05:02.582Z,6.41
2023-01-02T18:07:29.345Z,6.38
2023-01-02T18:10:09.000Z,6.39
2023-01-02T18:12:38.183Z,6.38
2023-01-02T18:15:12.289Z,6.37
2023-01-02T18:17:38.981Z,6.51
2023-01-02T18:20:25.901Z,6.56
2023-01-02T18:22:52.936Z,6.62
2023-01-02T18:25:24.902Z,6.60
2023-01-02T18:27:51.881Z,6.60
2023-01-02T18:30:21.302Z,6.47
2023-01-02T18:32:49.211Z,6.45
2023-01-02T18:35:54.835Z,6.46
2023-01-02T18:38:19.013Z,6.41
2023-01-02T18:40:45.864Z,6.30
2023-01-02T18:43:27.651Z,6.26
2023-01-02T18:45:57.813Z,6.28
2023-01-02T18:48:24.765Z,6.15
2023-01-02T18:51:01.978Z,6.10
2023-01-02T18:53:48.242Z,6.16
2023-01-02T18:56:26.569Z,6.17
2023-01-02T18:59:02.186Z,6.13
2023-01-02T19:01:32.966Z,6.10
2023-01-02T19:04:28.342Z,6.09
2023-01-02T19:06:59.936Z,6.10
2023-01-02T19:09:32.464Z,6.08
2023-01-02T19:12:42.596Z,6.03
2023-01-02T19:15:43.737Z,6.07
2023-01-02T19:18:35.589Z,6.02
2023-01-02T19:21:24.063Z,6.09
2023-01-02T19:24:16.905Z,5.99
2023-01-02T19:26:46.042Z,5.99
2023-01-02T19:29:12.836Z,6.03
2023-01-02T19:32:08.832Z,5.98
2023-01-02T19:34:51.465Z,5.98
2023-01-02T19:37:24.273Z,6.01
2023-01-02T19:39:55.483Z,6.06
2023-01-02T19:42:24.322Z,6.06
2023-01-02T19:44:57.096Z,6.10
2023-01-02T19:47:29.768Z,6.04
2023-01-02T19:49:57.276Z,5.95
2023-01-02T19:52:25.405Z,5.86
2023-01-02T19:54:54.924Z,5.94
2023-01-02T19:57:22.558Z,5.94
2023-01-02T19:59:50.785Z,5.95
2023-01-02T20:02:20.260Z,5.91
2023-01-02T20:04:49.733Z,6.06
2023-01-02T20:07:16.814Z,6.07
2023-01-02T20:09:43.434Z,5.98
2023-01-02T20:12:28.611Z,6.04
2023-01-02T20:14:55.332Z,5.98
2023-01-02T20:17:22.054Z,5.96
2023-01-02T20:19:48.679Z,5.95
2023-01-02T20:22:15.478Z,6.05
2023-01-02T20:24:42.212Z,6.05
2023-01-02T20:27:09.069Z,6.01
2023-01-02T20:29:36.282Z,6.05
2023-01-02T20:32:02.907Z,6.06
2023-01-02T20:34:29.532Z,6.06
2023-01-02T20:36:56.273Z,6.07
2023-01-02T20:39:23.017Z,6.00
2023-01-02T20:41:49.849Z,5.96
2023-01-02T20:44:16.977Z,5.98
2023-01-02T20:46:43.725Z,5.90
2023-01-02T20:49:10.920Z,5.97
2023-01-02T20:51:39.006Z,5.92
2023-01-02T20:54:06.613Z,5.90
2023-01-02T20:56:34.562Z,5.83
2023-01-02T20:59:01.253Z,5.76
2023-01-02T21:01:27.955Z,5.77
2023-01-02T21:03:54.844Z,5.74
2023-01-02T21:06:21.547Z,5.69
2023-01-02T21:08:48.191Z,5.68
2023-01-02T21:11:14.858Z,5.73
2023-01-02T21:13:41.483Z,5.68
2023-01-02T21:16:08.226Z,5.62
2023-01-02T21:18:38.012Z,5.62
2023-01-02T21:21:20.644Z,5.63
2023-01-02T21:23:48.378Z,5.61
2023-01-02T21:26:16.640Z,5.68
2023-01-02T21:28:47.561Z,5.72
2023-01-02T21:31:15.163Z,5.56
2023-01-02T21:33:41.838Z,5.61
2023-01-02T21:36:09.491Z,5.55
2023-01-02T21:38:36.481Z,5.44
2023-01-02T21:41:21.833Z,5.45
2023-01-02T21:43:48.800Z,5.42
2023-01-02T21:46:15.751Z,5.41
2023-01-02T21:48:42.636Z,5.40
2023-01-02T21:51:09.405Z,5.38
2023-01-02T21:53:36.111Z,5.31
2023-01-02T21:56:03.790Z,5.26
2023-01-02T21:58:30.491Z,5.45
2023-01-02T22:00:57.220Z,5.45
2023-01-02T22:03:24.071Z,5.48
2023-01-02T22:05:50.814Z,5.44
2023-01-02T22:08:17.615Z,5.52
2023-01-02T22:10:44.239Z,5.39
2023-01-02T22:13:10.943Z,5.60
2023-01-02T22:15:37.941Z,5.52
2023-01-02T22:18:04.645Z,5.51
2023-01-02T22:20:32.342Z,5.44
2023-01-02T22:22:59.530Z,5.46
2023-01-02T22:25:26.208Z,5.44
2023-01-02T22:27:52.910Z,5.45
2023-01-02T22:30:24.390Z,5.52
2023-01-02T22:32:54.661Z,5.47
2023-01-02T22:35:21.441Z,5.54
2023-01-02T22:37:48.081Z,5.48
2023-01-02T22:40:14.944Z,5.46
2023-01-02T22:43:09.029Z,5.37
2023-01-02T22:45:47.055Z,5.38
2023-01-02T22:48:26.935Z,5.41
2023-01-02T22:50:56.220Z,5.37
2023-01-02T22:53:27.896Z,5.45
2023-01-02T22:55:54.867Z,5.49
2023-01-02T22:58:22.166Z,5.49
2023-01-02T23:00:57.326Z,5.50
2023-01-02T23:03:23.998Z,5.47
2023-01-02T23:05:50.634Z,5.43
2023-01-02T23:08:17.336Z,5.47
2023-01-02T23:10:43.990Z,5.51
2023-01-02T23:13:10.724Z,5.53
2023-01-02T23:15:57.296Z,5.62
2023-01-02T23:18:42.762Z,5.52
2023-01-02T23:21:09.849Z,5.45
2023-01-02T23:23:36.529Z,5.25
2023-01-02T23:26:05.156Z,5.42
2023-01-02T23:29:05.295Z,5.25
2023-01-02T23:31:18.799Z,5.26
2023-01-02T23:33:45.442Z,5.31
2023-01-02T23:36:12.043Z,5.24
2023-01-02T23:38:38.852Z,5.35
2023-01-02T23:41:05.587Z,5.19
2023-01-02T23:43:32.314Z,5.31
2023-01-02T23:45:59.121Z,5.31
2023-01-02T23:48:25.844Z,5.26
2023-01-02T23:51:03.340Z,5.28
2023-01-02T23:53:30.199Z,5.33
2023-01-02T23:55:56.817Z,5.25
2023-01-02T23:58:23.967Z,5.21
